createdAt,value
2024-03-05T00:01:23.760Z,34.20
2024-03-05T00:03:51.294Z,41.20
2024-03-05T00:06:18.274Z,36.73
2024-03-05T00:08:45.573Z,41.40
2024-03-05T00:11:12.916Z,37.70
2024-03-05T00:13:42.264Z,35.67
2024-03-05T00:16:09.723Z,32.90
2024-03-05T00:18:37.283Z,37.17
2024-03-05T00:21:05.185Z,36.60
2024-03-05T00:23:33.278Z,36.70
2024-03-05T00:26:00.906Z,34.73
2024-03-05T00:28:28.336Z,35.70
2024-03-05T00:30:55.753Z,39.53
2024-03-05T00:33:23.198Z,39.27
2024-03-05T00:35:50.817Z,36.93
2024-03-05T00:38:22.453Z,38.33
2024-03-05T00:40:55.849Z,34.93
2024-03-05T00:43:26.234Z,38.23
2024-03-05T00:45:53.605Z,41.90
2024-03-05T00:48:20.697Z,36.50
2024-03-05T00:50:48.094Z,34.93
2024-03-05T00:53:17.130Z,41.90
2024-03-05T00:55:44.322Z,43.10
2024-03-05T00:58:11.874Z,34.90
2024-03-05T01:00:41.160Z,37.23
2024-03-05T01:03:08.428Z,36.70
2024-03-05T01:05:35.761Z,38.67
2024-03-05T01:08:04.297Z,41.97
2024-03-05T01:10:31.669Z,39.30
2024-03-05T01:12:58.974Z,37.47
2024-03-05T01:15:26.826Z,36.23
2024-03-05T01:17:56.882Z,36.97
2024-03-05T01:20:24.092Z,38.63
2024-03-05T01:22:51.609Z,36.67
2024-03-05T01:25:19.286Z,44.23
2024-03-05T01:27:47.092Z,38.00
2024-03-05T01:30:18.641Z,42.10
2024-03-05T01:32:48.252Z,42.20
2024-03-05T01:35:17.913Z,37.30
2024-03-05T01:37:45.260Z,41.60
2024-03-05T01:40:16.013Z,37.00
2024-03-05T01:42:43.492Z,44.50
2024-03-05T01:45:11.181Z,42.00
2024-03-05T01:47:38.437Z,37.07
2024-03-05T01:50:07.700Z,42.60
2024-03-05T01:52:37.867Z,47.23
2024-03-05T01:55:11.421Z,33.93
2024-03-05T01:57:43.177Z,38.80
2024-03-05T02:00:12.496Z,35.67
2024-03-05T02:02:39.957Z,39.70
2024-03-05T02:05:10.305Z,38.00
2024-03-05T02:07:38.415Z,33.73
2024-03-05T02:10:09.111Z,39.90
2024-03-05T02:12:43.677Z,38.30
2024-03-05T02:15:15.741Z,44.33
2024-03-05T02:17:46.196Z,40.73
2024-03-05T02:20:16.546Z,37.23
2024-03-05T02:22:44.449Z,32.87
2024-03-05T02:25:11.863Z,38.20
2024-03-05T02:27:40.241Z,42.43
2024-03-05T02:30:14.135Z,38.13
2024-03-05T02:32:43.500Z,35.73
2024-03-05T02:35:12.488Z,41.60
2024-03-05T02:37:40.343Z,43.93
2024-03-05T02:40:10.355Z,42.03
2024-03-05T02:42:38.435Z,46.93
2024-03-05T02:45:06.406Z,42.77
2024-03-05T02:47:43.868Z,36.30
2024-03-05T02:50:12.345Z,42.10
2024-03-05T02:52:40.633Z,41.73
2024-03-05T02:55:11.511Z,35.60
2024-03-05T02:57:43.172Z,38.23
2024-03-05T03:00:11.998Z,36.87
2024-03-05T03:02:39.200Z,38.30
2024-03-05T03:05:07.322Z,40.40
2024-03-05T03:07:34.828Z,43.70
2024-03-05T03:10:02.086Z,41.10
2024-03-05T03:12:29.280Z,39.93
2024-03-05T03:14:56.543Z,44.60
2024-03-05T03:17:24.013Z,35.40
2024-03-05T03:19:51.537Z,47.60
2024-03-05T03:22:19.144Z,39.77
2024-03-05T03:24:46.604Z,37.17
2024-03-05T03:27:14.352Z,40.90
2024-03-05T03:29:42.316Z,44.37
2024-03-05T03:32:11.818Z,42.70
2024-03-05T03:34:42.745Z,40.57
2024-03-05T03:37:10.214Z,39.50
2024-03-05T03:39:37.565Z,40.10
2024-03-05T03:42:04.850Z,40.83
2024-03-05T03:44:34.020Z,39.20
2024-03-05T03:47:06.210Z,39.97
2024-03-05T03:49:34.073Z,40.67
2024-03-05T03:52:01.677Z,42.60
2024-03-05T03:54:28.859Z,47.90
2024-03-05T03:56:56.499Z,43.33
2024-03-05T03:59:26.731Z,39.70
2024-03-05T04:01:56.788Z,37.33
2024-03-05T04:04:25.338Z,44.43
2024-03-05T04:06:56.175Z,46.40
2024-03-05T04:09:23.604Z,43.33
2024-03-05T04:11:51.164Z,40.93
2024-03-05T04:14:20.581Z,41.70
2024-03-05T04:16:48.040Z,39.93
2024-03-05T04:19:15.567Z,49.30
2024-03-05T04:21:44.022Z,43.33
2024-03-05T04:24:16.872Z,46.10
2024-03-05T04:26:49.570Z,39.50
2024-03-05T04:29:21.120Z,44.00
2024-03-05T04:32:06.832Z,48.77
2024-03-05T04:34:34.456Z,43.33
2024-03-05T04:37:02.029Z,40.50
2024-03-05T04:39:29.648Z,43.73
2024-03-05T04:41:56.735Z,44.57
2024-03-05T04:44:26.096Z,48.30
2024-03-05T04:46:53.533Z,41.07
2024-03-05T04:49:21.183Z,51.60
2024-03-05T04:51:48.508Z,55.47
2024-03-05T04:54:15.972Z,48.03
2024-03-05T04:56:43.226Z,42.77
2024-03-05T04:59:10.939Z,43.37
2024-03-05T05:01:41.469Z,50.60
2024-03-05T05:04:08.772Z,46.80
2024-03-05T05:06:35.945Z,54.43
2024-03-05T05:09:07.108Z,56.83
2024-03-05T05:11:35.496Z,51.90
2024-03-05T05:14:02.923Z,46.43
2024-03-05T05:16:30.392Z,49.63
2024-03-05T05:18:57.814Z,49.70
2024-03-05T05:21:25.889Z,48.00
2024-03-05T05:23:53.259Z,44.20
2024-03-05T05:26:20.625Z,48.03
2024-03-05T05:28:47.867Z,41.50
2024-03-05T05:31:26.919Z,40.83
2024-03-05T05:33:55.070Z,42.50
2024-03-05T05:36:22.473Z,44.10
2024-03-05T05:38:52.838Z,50.77
2024-03-05T05:41:19.980Z,44.13
2024-03-05T05:43:50.243Z,42.07
2024-03-05T05:46:20.469Z,47.23
2024-03-05T05:48:50.886Z,45.13
2024-03-05T05:51:19.833Z,45.20
2024-03-05T05:53:47.320Z,45.10
2024-03-05T05:56:18.377Z,45.40
2024-03-05T05:58:46.191Z,45.20
2024-03-05T06:01:15.537Z,46.67
2024-03-05T06:03:49.012Z,43.10
2024-03-05T06:06:21.425Z,43.60
2024-03-05T06:08:51.497Z,44.70
2024-03-05T06:11:19.202Z,45.17
2024-03-05T06:13:46.805Z,47.23
2024-03-05T06:16:14.165Z,53.20
2024-03-05T06:18:41.542Z,45.47
2024-03-05T06:21:09.058Z,44.47
2024-03-05T06:23:36.559Z,45.90
2024-03-05T06:26:04.024Z,45.33
2024-03-05T06:28:31.691Z,43.40
2024-03-05T06:31:01.681Z,43.00
2024-03-05T06:33:31.351Z,47.70
2024-03-05T06:35:59.570Z,43.03
2024-03-05T06:38:27.001Z,45.77
2024-03-05T06:40:56.400Z,39.30
2024-03-05T06:43:33.171Z,37.07
2024-03-05T06:46:04.304Z,48.07
2024-03-05T06:48:34.397Z,42.90
2024-03-05T06:51:05.121Z,40.97
2024-03-05T06:53:52.891Z,53.97
2024-03-05T06:56:38.985Z,42.27
2024-03-05T06:59:06.437Z,39.43
2024-03-05T07:01:36.230Z,37.30
2024-03-05T07:04:07.044Z,40.40
2024-03-05T07:06:37.234Z,37.60
2024-03-05T07:09:04.752Z,42.97
2024-03-05T07:11:32.044Z,37.70
2024-03-05T07:14:03.849Z,42.57
2024-03-05T07:16:34.919Z,43.50
2024-03-05T07:19:02.916Z,41.57
2024-03-05T07:21:30.206Z,42.73
2024-03-05T07:23:59.142Z,46.40
2024-03-05T07:26:26.768Z,36.47
2024-03-05T07:28:54.294Z,40.70
2024-03-05T07:31:21.805Z,39.13
2024-03-05T07:33:52.933Z,44.23
2024-03-05T07:36:21.800Z,47.20
2024-03-05T07:38:49.182Z,46.27
2024-03-05T07:41:26.658Z,41.10
2024-03-05T07:44:01.201Z,41.93
2024-03-05T07:46:29.391Z,51.77
2024-03-05T07:49:00.081Z,45.03
2024-03-05T07:51:29.470Z,38.13
2024-03-05T07:54:00.949Z,42.57
2024-03-05T07:56:31.397Z,42.80
2024-03-05T07:59:01.214Z,40.67
2024-03-05T08:01:29.102Z,36.57
2024-03-05T08:03:56.608Z,37.30
2024-03-05T08:06:23.867Z,43.17
2024-03-05T08:08:51.209Z,37.67
2024-03-05T08:11:18.648Z,38.37
2024-03-05T08:13:47.513Z,39.70
2024-03-05T08:16:14.931Z,38.03
2024-03-05T08:18:42.792Z,35.03
2024-03-05T08:21:09.940Z,42.10
2024-03-05T08:23:37.196Z,43.87
2024-03-05T08:26:06.693Z,40.40
2024-03-05T08:28:34.052Z,38.03
2024-03-05T08:31:01.526Z,40.20
2024-03-05T08:33:29.775Z,41.67
2024-03-05T08:35:57.668Z,44.17
2024-03-05T08:38:26.585Z,36.90
2024-03-05T08:40:54.054Z,43.73
2024-03-05T08:43:21.492Z,39.17
2024-03-05T08:45:48.896Z,43.67
2024-03-05T08:48:16.319Z,44.77
2024-03-05T08:50:43.805Z,41.53
2024-03-05T08:53:11.410Z,45.33
2024-03-05T08:55:38.921Z,40.33
2024-03-05T08:58:06.521Z,37.83
2024-03-05T09:00:42.020Z,37.67
2024-03-05T09:03:13.849Z,46.23
2024-03-05T09:05:44.338Z,41.40
2024-03-05T09:08:14.389Z,45.83
2024-03-05T09:10:42.401Z,43.27
2024-03-05T09:13:11.865Z,41.63
2024-03-05T09:15:44.331Z,45.50
2024-03-05T09:18:14.720Z,41.27
2024-03-05T09:20:43.819Z,44.43
2024-03-05T09:23:11.502Z,41.77
2024-03-05T09:25:43.537Z,40.23
2024-03-05T09:28:12.088Z,47.70
2024-03-05T09:30:40.469Z,41.20
2024-03-05T09:33:11.607Z,40.03
2024-03-05T09:35:42.292Z,37.27
2024-03-05T09:38:10.796Z,33.90
2024-03-05T09:49:54.003Z,32.20
2024-03-05T09:52:21.471Z,34.30
2024-03-05T09:54:49.009Z,33.27
2024-03-05T09:57:22.079Z,39.30
2024-03-05T09:59:51.789Z,37.33
2024-03-05T10:02:19.582Z,33.23
2024-03-05T10:04:47.553Z,39.00
2024-03-05T10:07:51.243Z,29.40
2024-03-05T10:10:23.336Z,29.57
2024-03-05T10:12:56.708Z,27.10
2024-03-05T10:15:30.200Z,36.07
2024-03-05T10:17:58.590Z,30.37
2024-03-05T10:20:34.437Z,31.67
2024-03-05T10:23:05.007Z,32.63
2024-03-05T10:25:37.474Z,30.27
2024-03-05T10:28:06.534Z,25.50
2024-03-05T10:30:36.416Z,37.90
2024-03-05T10:33:11.596Z,32.70
2024-03-05T10:35:40.349Z,33.47
2024-03-05T10:38:19.515Z,33.60
2024-03-05T10:40:48.228Z,39.43
2024-03-05T10:43:20.455Z,33.80
2024-03-05T10:45:52.339Z,30.10
2024-03-05T10:48:58.714Z,31.07
2024-03-05T10:51:36.820Z,25.63
2024-03-05T10:54:06.114Z,33.30
2024-03-05T10:56:43.333Z,26.80
2024-03-05T10:59:17.749Z,25.53
2024-03-05T11:01:46.590Z,29.07
2024-03-05T11:04:17.118Z,26.77
2024-03-05T11:06:46.860Z,24.33
2024-03-05T11:09:24.751Z,25.60
2024-03-05T11:12:04.720Z,24.53
2024-03-05T11:14:32.041Z,22.03
2024-03-05T11:17:11.823Z,21.47
2024-03-05T14:48:32.728Z,11.10
2024-03-05T14:51:01.184Z,9.90
2024-03-05T14:53:28.791Z,6.80
2024-03-05T14:55:56.373Z,8.43
2024-03-05T14:58:28.217Z,7.43
2024-03-05T15:00:58.912Z,7.37
2024-03-05T15:03:28.780Z,6.27
2024-03-05T15:05:59.056Z,8.03
2024-03-05T15:08:26.364Z,10.23
2024-03-05T15:10:56.877Z,7.70
2024-03-05T15:13:26.383Z,8.77
2024-03-05T15:15:53.776Z,8.73
2024-03-05T15:18:24.323Z,6.60
2024-03-05T15:20:56.184Z,8.47
2024-03-05T15:23:26.512Z,7.30
2024-03-05T15:25:59.148Z,8.80
2024-03-05T15:28:31.650Z,8.07
2024-03-05T15:30:59.915Z,9.03
2024-03-05T15:33:27.702Z,7.20
2024-03-05T15:35:55.173Z,7.40
2024-03-05T15:38:26.067Z,11.40
2024-03-05T15:40:56.015Z,9.60
2024-03-05T15:43:23.614Z,11.30
2024-03-05T15:45:52.992Z,9.60
2024-03-05T15:48:22.960Z,8.80
2024-03-05T15:50:52.937Z,10.10
2024-03-05T15:53:25.536Z,9.30
2024-03-05T15:56:02.865Z,8.77
2024-03-05T15:58:45.384Z,9.63
2024-03-05T16:01:13.545Z,11.40
2024-03-05T16:03:57.204Z,10.20
2024-03-05T16:06:34.061Z,7.40
2024-03-05T16:09:01.394Z,8.57
2024-03-05T16:11:28.843Z,9.30
2024-03-05T16:13:56.387Z,6.63
2024-03-05T16:16:25.166Z,9.40
2024-03-05T16:18:52.925Z,7.87
2024-03-05T16:21:21.607Z,7.43
2024-03-05T16:23:51.536Z,4.77
2024-03-05T16:26:19.379Z,5.60
2024-03-05T16:28:50.924Z,6.70
2024-03-05T16:31:18.476Z,5.00
2024-03-05T16:33:47.162Z,9.57
2024-03-05T16:36:22.217Z,5.77
2024-03-05T16:38:50.081Z,9.07
2024-03-05T16:41:17.215Z,6.20
2024-03-05T16:43:45.110Z,8.73
2024-03-05T16:46:13.157Z,8.23
2024-03-05T16:48:43.586Z,6.97
2024-03-05T16:51:11.970Z,6.97
2024-03-05T16:53:42.289Z,6.20
2024-03-05T16:56:09.850Z,7.10
2024-03-05T16:58:39.974Z,7.23
2024-03-05T17:01:16.067Z,10.63
2024-03-05T17:03:46.486Z,6.70
2024-03-05T17:06:20.370Z,5.97
2024-03-05T17:08:50.159Z,6.90
2024-03-05T17:11:17.769Z,7.80
2024-03-05T17:13:47.746Z,8.70
2024-03-05T17:16:16.604Z,8.70
2024-03-05T17:18:44.009Z,7.80
2024-03-05T17:21:11.458Z,9.13
2024-03-05T17:23:43.606Z,6.40
2024-03-05T17:26:13.450Z,11.20
2024-03-05T17:28:42.449Z,8.23
2024-03-05T17:31:10.099Z,7.87
2024-03-05T17:33:39.121Z,7.80
2024-03-05T17:36:06.769Z,7.40
2024-03-05T17:38:36.625Z,8.03
2024-03-05T17:41:04.931Z,8.50
2024-03-05T17:43:34.789Z,7.30
2024-03-05T17:46:04.093Z,9.50
2024-03-05T17:48:31.756Z,8.23
2024-03-05T17:50:59.875Z,11.20
2024-03-05T17:53:29.722Z,8.13
2024-03-05T17:55:57.273Z,9.00
2024-03-05T17:58:25.036Z,8.77
2024-03-05T18:00:52.676Z,10.20
2024-03-05T18:03:23.775Z,8.07
2024-03-05T18:06:10.879Z,8.80
2024-03-05T18:08:38.807Z,9.07
2024-03-05T18:11:07.206Z,8.07
2024-03-05T18:13:34.929Z,8.97
2024-03-05T18:16:03.482Z,8.70
2024-03-05T18:18:31.403Z,9.73
2024-03-05T18:20:59.938Z,8.83
2024-03-05T18:23:27.680Z,8.53
2024-03-05T18:25:55.086Z,8.70
2024-03-05T18:28:24.510Z,10.80
2024-03-05T18:30:52.188Z,9.23
2024-03-05T18:33:22.719Z,8.77
2024-03-05T18:35:52.038Z,10.23
2024-03-05T18:38:27.897Z,11.63
2024-03-05T18:41:03.046Z,8.60
2024-03-05T18:43:33.945Z,9.20
2024-03-05T18:46:02.318Z,10.07
2024-03-05T18:48:31.965Z,9.43
2024-03-05T18:51:02.380Z,9.30
2024-03-05T18:53:39.366Z,9.70
2024-03-05T18:56:13.635Z,11.07
2024-03-05T18:58:42.881Z,8.83
2024-03-05T19:01:11.910Z,9.17
2024-03-05T19:03:40.612Z,11.00
2024-03-05T19:06:08.033Z,11.03
2024-03-05T19:08:35.332Z,13.37
2024-03-05T19:11:02.599Z,10.40
2024-03-05T19:13:32.963Z,10.90
2024-03-05T19:16:02.758Z,10.30
2024-03-05T19:18:29.960Z,10.63
2024-03-05T19:21:02.735Z,12.20
2024-03-05T19:23:30.141Z,11.13
2024-03-05T19:26:02.108Z,11.50
2024-03-05T19:28:34.760Z,9.87
2024-03-05T19:31:03.917Z,13.90
2024-03-05T19:33:32.740Z,12.90
2024-03-05T19:36:01.743Z,10.23
2024-03-05T19:38:31.899Z,13.20
2024-03-05T19:41:05.173Z,14.43
2024-03-05T19:43:37.747Z,10.93
2024-03-05T19:46:05.887Z,11.07
2024-03-05T19:48:35.282Z,12.47
2024-03-05T19:51:03.629Z,11.97
2024-03-05T19:53:31.190Z,10.37
2024-03-05T19:55:59.003Z,14.20
2024-03-05T19:58:26.656Z,12.47
2024-03-05T20:00:57.286Z,11.90
2024-03-05T20:03:29.325Z,11.77
2024-03-05T20:06:01.677Z,9.70
2024-03-05T20:08:37.017Z,10.10
2024-03-05T20:11:10.019Z,13.93
2024-03-05T20:13:39.624Z,12.00
2024-03-05T20:16:13.924Z,11.70
2024-03-05T20:18:44.739Z,11.97
2024-03-05T20:21:12.103Z,15.57
2024-03-05T20:23:39.747Z,12.10
2024-03-05T20:26:09.416Z,12.07
2024-03-05T20:28:42.986Z,11.77
2024-03-05T20:31:12.695Z,12.10
2024-03-05T20:33:40.339Z,15.73
2024-03-05T20:36:10.825Z,12.87
2024-03-05T20:38:42.513Z,12.37
2024-03-05T20:41:09.933Z,13.10
2024-03-05T20:43:46.227Z,14.93
2024-03-05T20:46:15.875Z,13.50
2024-03-05T20:48:45.224Z,12.93
2024-03-05T20:51:13.757Z,13.10
2024-03-05T20:53:44.497Z,11.57
2024-03-05T20:56:13.096Z,14.50
2024-03-05T20:58:55.176Z,14.17
2024-03-05T21:01:24.834Z,13.00
2024-03-05T21:03:57.168Z,14.60
2024-03-05T21:06:27.917Z,12.33
2024-03-05T21:09:00.689Z,19.63
2024-03-05T21:11:28.913Z,16.07
2024-03-05T21:13:58.015Z,12.90
2024-03-05T21:16:26.933Z,13.27
2024-03-05T21:18:57.501Z,13.90
2024-03-05T21:21:26.425Z,14.10
2024-03-05T21:23:57.636Z,13.80
2024-03-05T21:26:35.635Z,13.90
2024-03-05T21:29:17.675Z,13.70
2024-03-05T21:31:48.830Z,15.60
2024-03-05T21:34:17.609Z,13.20
2024-03-05T21:36:49.619Z,13.57
2024-03-05T21:39:20.977Z,13.90
2024-03-05T21:41:50.128Z,13.57
2024-03-05T21:44:26.170Z,15.60
2024-03-05T21:47:05.820Z,15.07
2024-03-05T21:49:37.223Z,17.35
2024-03-05T21:52:06.028Z,18.77
2024-03-05T21:54:41.371Z,15.23
2024-03-05T21:57:09.895Z,19.13
2024-03-05T21:59:38.632Z,16.57
2024-03-05T22:02:08.456Z,16.13
2024-03-05T22:04:37.519Z,14.30
2024-03-05T22:07:10.395Z,18.17
2024-03-05T22:09:39.993Z,16.42
2024-03-05T22:12:11.339Z,18.10
2024-03-05T22:14:45.311Z,16.77
2024-03-05T22:17:16.267Z,14.73
2024-03-05T22:19:45.489Z,19.13
2024-03-05T22:22:14.602Z,17.50
2024-03-05T22:24:43.487Z,18.20
2024-03-05T22:27:11.250Z,19.97
2024-03-05T22:29:40.415Z,22.40
2024-03-05T22:32:08.920Z,20.43
2024-03-05T22:34:38.228Z,14.53
2024-03-05T22:37:06.257Z,19.57
2024-03-05T22:39:34.537Z,16.40
2024-03-05T22:42:02.936Z,22.57
2024-03-05T22:44:33.378Z,18.53
2024-03-05T22:47:01.375Z,15.63
2024-03-05T22:49:29.799Z,18.83
2024-03-05T22:51:57.816Z,18.17
2024-03-05T22:54:25.895Z,18.47
2024-03-05T22:56:54.475Z,18.60
2024-03-05T22:59:22.838Z,18.07
2024-03-05T23:01:55.754Z,17.53
2024-03-05T23:04:24.182Z,18.53
2024-03-05T23:06:52.796Z,19.10
2024-03-05T23:09:23.850Z,17.33
2024-03-05T23:11:55.858Z,22.23
2024-03-05T23:14:24.766Z,18.87
2024-03-05T23:16:53.022Z,17.73
2024-03-05T23:19:21.818Z,18.97
2024-03-05T23:21:53.046Z,20.67
2024-03-05T23:24:24.922Z,21.70
2024-03-05T23:26:55.995Z,18.67
2024-03-05T23:29:26.923Z,20.80
2024-03-05T23:31:59.963Z,17.53
2024-03-05T23:34:28.340Z,18.67
2024-03-05T23:37:00.638Z,18.53
2024-03-05T23:39:31.326Z,20.53
2024-03-05T23:42:02.566Z,19.87
2024-03-05T23:44:30.466Z,19.77
2024-03-05T23:47:05.996Z,18.30
2024-03-05T23:49:37.354Z,24.00
2024-03-05T23:52:05.387Z,20.80
2024-03-05T23:54:35.815Z,22.37
2024-03-05T23:57:11.118Z,21.93
2024-03-05T23:59:44.964Z,20.50
